sensor_id;sensor_type;location;lat;lon;timestamp;P1;durP1;ratioP1;P2;durP2;ratioP2
50683;SDS011;36654;45.042;38.994;2023-04-16T00:00:45;14.93;;;7.43;;
50683;SDS011;36654;45.042;38.994;2023-04-16T00:03:12;11.70;;;7.68;;
50683;SDS011;36654;45.042;38.994;2023-04-16T00:05:38;16.15;;;7.68;;
50683;SDS011;36654;45.042;38.994;2023-04-16T00:08:04;11.55;;;7.38;;
50683;SDS011;36654;45.042;38.994;2023-04-16T00:10:29;12.23;;;8.15;;
50683;SDS011;36654;45.042;38.994;2023-04-16T00:12:55;13.38;;;8.63;;
50683;SDS011;36654;45.042;38.994;2023-04-16T00:15:21;11.80;;;7.47;;
50683;SDS011;36654;45.042;38.994;2023-04-16T00:17:46;11.65;;;6.72;;
50683;SDS011;36654;45.042;38.994;2023-04-16T00:20:12;13.57;;;7.80;;
50683;SDS011;36654;45.042;38.994;2023-04-16T00:22:38;13.00;;;7.65;;
50683;SDS011;36654;45.042;38.994;2023-04-16T00:25:03;11.73;;;7.25;;
50683;SDS011;36654;45.042;38.994;2023-04-16T00:27:29;12.65;;;7.80;;
50683;SDS011;36654;45.042;38.994;2023-04-16T00:29:55;15.05;;;7.90;;
50683;SDS011;36654;45.042;38.994;2023-04-16T00:32:20;16.58;;;8.75;;
50683;SDS011;36654;45.042;38.994;2023-04-16T00:34:46;14.07;;;8.45;;
50683;SDS011;36654;45.042;38.994;2023-04-16T00:37:12;12.65;;;7.78;;
50683;SDS011;36654;45.042;38.994;2023-04-16T00:39:37;13.57;;;7.93;;
50683;SDS011;36654;45.042;38.994;2023-04-16T00:42:03;14.05;;;7.97;;
50683;SDS011;36654;45.042;38.994;2023-04-16T00:44:29;11.18;;;6.80;;
50683;SDS011;36654;45.042;38.994;2023-04-16T00:46:55;11.85;;;7.55;;
50683;SDS011;36654;45.042;38.994;2023-04-16T00:49:21;13.95;;;8.25;;
50683;SDS011;36654;45.042;38.994;2023-04-16T00:51:48;16.05;;;7.35;;
50683;SDS011;36654;45.042;38.994;2023-04-16T00:54:14;11.55;;;7.05;;
50683;SDS011;36654;45.042;38.994;2023-04-16T00:56:40;13.23;;;6.70;;
50683;SDS011;36654;45.042;38.994;2023-04-16T00:59:07;14.80;;;7.60;;
50683;SDS011;36654;45.042;38.994;2023-04-16T01:01:33;12.43;;;7.05;;
50683;SDS011;36654;45.042;38.994;2023-04-16T01:03:58;11.48;;;7.93;;
50683;SDS011;36654;45.042;38.994;2023-04-16T01:06:24;13.32;;;8.02;;
50683;SDS011;36654;45.042;38.994;2023-04-16T01:08:51;13.65;;;7.88;;
50683;SDS011;36654;45.042;38.994;2023-04-16T01:11:16;12.32;;;8.30;;
50683;SDS011;36654;45.042;38.994;2023-04-16T01:13:42;15.30;;;8.18;;
50683;SDS011;36654;45.042;38.994;2023-04-16T01:16:08;15.15;;;8.00;;
50683;SDS011;36654;45.042;38.994;2023-04-16T01:18:35;18.48;;;8.38;;
50683;SDS011;36654;45.042;38.994;2023-04-16T01:21:02;10.10;;;6.85;;
50683;SDS011;36654;45.042;38.994;2023-04-16T01:23:28;12.98;;;8.32;;
50683;SDS011;36654;45.042;38.994;2023-04-16T01:25:54;12.27;;;7.60;;
50683;SDS011;36654;45.042;38.994;2023-04-16T01:28:20;15.80;;;8.35;;
50683;SDS011;36654;45.042;38.994;2023-04-16T01:30:46;12.65;;;8.05;;
50683;SDS011;36654;45.042;38.994;2023-04-16T01:33:12;11.77;;;7.30;;
50683;SDS011;36654;45.042;38.994;2023-04-16T01:35:38;13.10;;;7.75;;
50683;SDS011;36654;45.042;38.994;2023-04-16T01:38:05;12.10;;;7.38;;
50683;SDS011;36654;45.042;38.994;2023-04-16T01:40:33;13.90;;;8.48;;
50683;SDS011;36654;45.042;38.994;2023-04-16T01:42:59;13.60;;;8.30;;
50683;SDS011;36654;45.042;38.994;2023-04-16T01:45:25;11.32;;;7.63;;
50683;SDS011;36654;45.042;38.994;2023-04-16T01:47:51;11.63;;;7.45;;
50683;SDS011;36654;45.042;38.994;2023-04-16T01:50:17;13.95;;;8.23;;
50683;SDS011;36654;45.042;38.994;2023-04-16T01:52:44;14.98;;;8.57;;
50683;SDS011;36654;45.042;38.994;2023-04-16T01:55:09;17.38;;;9.27;;
50683;SDS011;36654;45.042;38.994;2023-04-16T01:57:35;15.52;;;7.63;;
50683;SDS011;36654;45.042;38.994;2023-04-16T02:00:01;13.40;;;7.45;;
50683;SDS011;36654;45.042;38.994;2023-04-16T02:02:28;14.00;;;7.82;;
50683;SDS011;36654;45.042;38.994;2023-04-16T02:04:53;13.65;;;8.07;;
50683;SDS011;36654;45.042;38.994;2023-04-16T02:07:21;15.23;;;8.48;;
50683;SDS011;36654;45.042;38.994;2023-04-16T02:09:46;15.60;;;8.65;;
50683;SDS011;36654;45.042;38.994;2023-04-16T02:12:14;14.30;;;7.70;;
50683;SDS011;36654;45.042;38.994;2023-04-16T02:14:39;13.95;;;7.28;;
50683;SDS011;36654;45.042;38.994;2023-04-16T02:17:05;14.73;;;8.13;;
50683;SDS011;36654;45.042;38.994;2023-04-16T02:19:30;15.13;;;8.13;;
50683;SDS011;36654;45.042;38.994;2023-04-16T02:21:56;13.27;;;8.10;;
50683;SDS011;36654;45.042;38.994;2023-04-16T02:24:22;14.52;;;7.30;;
50683;SDS011;36654;45.042;38.994;2023-04-16T02:26:47;12.88;;;7.97;;
50683;SDS011;36654;45.042;38.994;2023-04-16T02:29:13;12.88;;;8.43;;
50683;SDS011;36654;45.042;38.994;2023-04-16T02:31:40;12.38;;;7.97;;
50683;SDS011;36654;45.042;38.994;2023-04-16T02:34:06;11.50;;;7.45;;
50683;SDS011;36654;45.042;38.994;2023-04-16T02:36:32;12.80;;;7.65;;
50683;SDS011;36654;45.042;38.994;2023-04-16T02:38:58;13.27;;;8.05;;
50683;SDS011;36654;45.042;38.994;2023-04-16T02:41:23;14.60;;;8.00;;
50683;SDS011;36654;45.042;38.994;2023-04-16T02:43:49;14.85;;;7.68;;
50683;SDS011;36654;45.042;38.994;2023-04-16T02:46:15;12.90;;;7.68;;
50683;SDS011;36654;45.042;38.994;2023-04-16T02:48:40;14.90;;;8.45;;
50683;SDS011;36654;45.042;38.994;2023-04-16T02:51:06;10.10;;;6.75;;
50683;SDS011;36654;45.042;38.994;2023-04-16T02:53:32;16.52;;;8.23;;
50683;SDS011;36654;45.042;38.994;2023-04-16T02:55:57;17.83;;;8.20;;
50683;SDS011;36654;45.042;38.994;2023-04-16T02:58:24;11.43;;;7.43;;
50683;SDS011;36654;45.042;38.994;2023-04-16T03:00:53;14.20;;;8.02;;
50683;SDS011;36654;45.042;38.994;2023-04-16T03:05:45;14.73;;;7.95;;
50683;SDS011;36654;45.042;38.994;2023-04-16T03:08:10;14.95;;;8.23;;
50683;SDS011;36654;45.042;38.994;2023-04-16T03:10:36;12.80;;;7.95;;
50683;SDS011;36654;45.042;38.994;2023-04-16T03:13:02;14.32;;;8.38;;
50683;SDS011;36654;45.042;38.994;2023-04-16T03:15:28;12.73;;;7.43;;
50683;SDS011;36654;45.042;38.994;2023-04-16T03:17:55;13.63;;;8.80;;
50683;SDS011;36654;45.042;38.994;2023-04-16T03:20:21;15.32;;;8.48;;
50683;SDS011;36654;45.042;38.994;2023-04-16T03:22:46;13.55;;;7.88;;
50683;SDS011;36654;45.042;38.994;2023-04-16T03:25:12;16.25;;;9.00;;
50683;SDS011;36654;45.042;38.994;2023-04-16T03:27:38;14.32;;;8.50;;
50683;SDS011;36654;45.042;38.994;2023-04-16T03:30:04;14.98;;;8.90;;
50683;SDS011;36654;45.042;38.994;2023-04-16T03:32:40;12.00;;;7.35;;
50683;SDS011;36654;45.042;38.994;2023-04-16T03:35:06;17.15;;;9.60;;
50683;SDS011;36654;45.042;38.994;2023-04-16T03:37:33;14.13;;;8.30;;
50683;SDS011;36654;45.042;38.994;2023-04-16T03:39:59;15.23;;;8.50;;
50683;SDS011;36654;45.042;38.994;2023-04-16T03:42:25;13.63;;;8.52;;
50683;SDS011;36654;45.042;38.994;2023-04-16T03:44:51;17.65;;;8.43;;
50683;SDS011;36654;45.042;38.994;2023-04-16T03:47:18;13.52;;;8.10;;
50683;SDS011;36654;45.042;38.994;2023-04-16T03:49:44;17.65;;;8.80;;
50683;SDS011;36654;45.042;38.994;2023-04-16T03:52:10;16.60;;;8.52;;
50683;SDS011;36654;45.042;38.994;2023-04-16T03:54:35;15.68;;;8.80;;
50683;SDS011;36654;45.042;38.994;2023-04-16T03:57:01;16.17;;;8.70;;
50683;SDS011;36654;45.042;38.994;2023-04-16T03:59:27;15.38;;;8.18;;
50683;SDS011;36654;45.042;38.994;2023-04-16T04:01:52;13.18;;;7.80;;
50683;SDS011;36654;45.042;38.994;2023-04-16T04:04:18;15.32;;;8.88;;
50683;SDS011;36654;45.042;38.994;2023-04-16T04:06:44;15.45;;;8.25;;
50683;SDS011;36654;45.042;38.994;2023-04-16T04:09:11;16.73;;;9.27;;
50683;SDS011;36654;45.042;38.994;2023-04-16T04:11:37;13.38;;;8.15;;
50683;SDS011;36654;45.042;38.994;2023-04-16T04:14:02;13.57;;;7.53;;
50683;SDS011;36654;45.042;38.994;2023-04-16T04:16:29;13.05;;;7.75;;
50683;SDS011;36654;45.042;38.994;2023-04-16T04:18:55;15.07;;;8.50;;
50683;SDS011;36654;45.042;38.994;2023-04-16T04:21:21;14.48;;;8.68;;
50683;SDS011;36654;45.042;38.994;2023-04-16T04:23:47;13.57;;;8.27;;
50683;SDS011;36654;45.042;38.994;2023-04-16T04:26:12;15.75;;;8.35;;
50683;SDS011;36654;45.042;38.994;2023-04-16T04:28:38;15.75;;;8.43;;
50683;SDS011;36654;45.042;38.994;2023-04-16T04:31:04;15.18;;;8.38;;
50683;SDS011;36654;45.042;38.994;2023-04-16T04:33:29;17.10;;;8.00;;
50683;SDS011;36654;45.042;38.994;2023-04-16T04:35:55;14.20;;;7.80;;
50683;SDS011;36654;45.042;38.994;2023-04-16T04:38:21;17.30;;;9.18;;
50683;SDS011;36654;45.042;38.994;2023-04-16T04:40:51;12.82;;;7.97;;
50683;SDS011;36654;45.042;38.994;2023-04-16T04:43:18;15.65;;;8.15;;
50683;SDS011;36654;45.042;38.994;2023-04-16T04:45:44;15.00;;;7.60;;
50683;SDS011;36654;45.042;38.994;2023-04-16T04:48:10;12.32;;;7.72;;
50683;SDS011;36654;45.042;38.994;2023-04-16T04:50:36;13.93;;;8.50;;
50683;SDS011;36654;45.042;38.994;2023-04-16T04:53:02;15.77;;;8.30;;
50683;SDS011;36654;45.042;38.994;2023-04-16T04:55:33;13.68;;;8.93;;
50683;SDS011;36654;45.042;38.994;2023-04-16T04:58:03;12.23;;;7.38;;
50683;SDS011;36654;45.042;38.994;2023-04-16T05:00:30;14.18;;;9.00;;
50683;SDS011;36654;45.042;38.994;2023-04-16T05:02:56;15.10;;;9.05;;
50683;SDS011;36654;45.042;38.994;2023-04-16T05:05:22;13.60;;;8.18;;
50683;SDS011;36654;45.042;38.994;2023-04-16T05:07:47;14.15;;;8.95;;
50683;SDS011;36654;45.042;38.994;2023-04-16T05:10:13;15.65;;;8.40;;
50683;SDS011;36654;45.042;38.994;2023-04-16T05:12:38;12.30;;;8.05;;
50683;SDS011;36654;45.042;38.994;2023-04-16T05:15:04;15.00;;;8.75;;
50683;SDS011;36654;45.042;38.994;2023-04-16T05:17:30;15.10;;;9.02;;
50683;SDS011;36654;45.042;38.994;2023-04-16T05:19:56;14.35;;;7.85;;
50683;SDS011;36654;45.042;38.994;2023-04-16T05:22:21;13.52;;;7.70;;
50683;SDS011;36654;45.042;38.994;2023-04-16T05:24:47;14.40;;;8.60;;
50683;SDS011;36654;45.042;38.994;2023-04-16T05:27:13;14.18;;;7.88;;
50683;SDS011;36654;45.042;38.994;2023-04-16T05:29:39;12.85;;;7.32;;
50683;SDS011;36654;45.042;38.994;2023-04-16T05:32:04;13.85;;;8.25;;
50683;SDS011;36654;45.042;38.994;2023-04-16T05:34:30;15.07;;;10.05;;
50683;SDS011;36654;45.042;38.994;2023-04-16T05:36:56;13.85;;;8.38;;
50683;SDS011;36654;45.042;38.994;2023-04-16T05:39:21;14.98;;;8.07;;
50683;SDS011;36654;45.042;38.994;2023-04-16T05:41:47;13.10;;;7.40;;
50683;SDS011;36654;45.042;38.994;2023-04-16T05:44:12;10.48;;;6.93;;
50683;SDS011;36654;45.042;38.994;2023-04-16T05:46:39;14.23;;;7.72;;
50683;SDS011;36654;45.042;38.994;2023-04-16T05:49:05;12.57;;;7.63;;
50683;SDS011;36654;45.042;38.994;2023-04-16T05:51:30;13.55;;;7.57;;
50683;SDS011;36654;45.042;38.994;2023-04-16T05:53:56;13.02;;;7.53;;
50683;SDS011;36654;45.042;38.994;2023-04-16T05:56:22;11.98;;;7.60;;
50683;SDS011;36654;45.042;38.994;2023-04-16T05:58:47;13.88;;;7.70;;
50683;SDS011;36654;45.042;38.994;2023-04-16T06:01:13;11.98;;;6.88;;
50683;SDS011;36654;45.042;38.994;2023-04-16T06:03:38;11.55;;;7.45;;
50683;SDS011;36654;45.042;38.994;2023-04-16T06:06:04;11.10;;;6.85;;
50683;SDS011;36654;45.042;38.994;2023-04-16T06:08:30;12.32;;;7.80;;
50683;SDS011;36654;45.042;38.994;2023-04-16T06:10:55;12.15;;;7.70;;
50683;SDS011;36654;45.042;38.994;2023-04-16T06:13:21;13.32;;;7.07;;
50683;SDS011;36654;45.042;38.994;2023-04-16T06:15:46;12.13;;;7.35;;
50683;SDS011;36654;45.042;38.994;2023-04-16T06:18:12;12.02;;;6.90;;
50683;SDS011;36654;45.042;38.994;2023-04-16T06:20:38;13.10;;;6.40;;
50683;SDS011;36654;45.042;38.994;2023-04-16T06:23:04;10.90;;;6.38;;
50683;SDS011;36654;45.042;38.994;2023-04-16T06:25:29;14.85;;;6.65;;
50683;SDS011;36654;45.042;38.994;2023-04-16T06:27:55;9.80;;;6.45;;
50683;SDS011;36654;45.042;38.994;2023-04-16T06:30:20;13.80;;;6.80;;
50683;SDS011;36654;45.042;38.994;2023-04-16T06:32:46;11.43;;;6.55;;
50683;SDS011;36654;45.042;38.994;2023-04-16T06:35:12;9.55;;;5.82;;
50683;SDS011;36654;45.042;38.994;2023-04-16T06:37:37;12.98;;;6.57;;
50683;SDS011;36654;45.042;38.994;2023-04-16T06:40:03;9.90;;;6.15;;
50683;SDS011;36654;45.042;38.994;2023-04-16T06:42:29;13.50;;;6.63;;
50683;SDS011;36654;45.042;38.994;2023-04-16T06:44:55;12.10;;;6.93;;
50683;SDS011;36654;45.042;38.994;2023-04-16T06:47:21;10.65;;;5.93;;
50683;SDS011;36654;45.042;38.994;2023-04-16T06:49:46;9.77;;;6.13;;
50683;SDS011;36654;45.042;38.994;2023-04-16T06:52:12;10.43;;;6.32;;
50683;SDS011;36654;45.042;38.994;2023-04-16T06:54:38;10.63;;;6.63;;
50683;SDS011;36654;45.042;38.994;2023-04-16T06:57:03;14.18;;;6.57;;
50683;SDS011;36654;45.042;38.994;2023-04-16T06:59:30;12.13;;;6.75;;
50683;SDS011;36654;45.042;38.994;2023-04-16T07:01:55;12.38;;;7.05;;
50683;SDS011;36654;45.042;38.994;2023-04-16T07:04:22;11.40;;;7.32;;
50683;SDS011;36654;45.042;38.994;2023-04-16T07:06:47;11.82;;;6.80;;
50683;SDS011;36654;45.042;38.994;2023-04-16T07:09:13;10.93;;;7.07;;
50683;SDS011;36654;45.042;38.994;2023-04-16T07:11:38;9.85;;;6.85;;
50683;SDS011;36654;45.042;38.994;2023-04-16T07:14:04;11.77;;;7.30;;
50683;SDS011;36654;45.042;38.994;2023-04-16T07:16:30;10.93;;;7.40;;
50683;SDS011;36654;45.042;38.994;2023-04-16T07:18:56;10.13;;;7.00;;
50683;SDS011;36654;45.042;38.994;2023-04-16T07:21:21;11.27;;;6.95;;
50683;SDS011;36654;45.042;38.994;2023-04-16T07:23:47;10.50;;;6.70;;
50683;SDS011;36654;45.042;38.994;2023-04-16T07:26:12;11.05;;;6.63;;
50683;SDS011;36654;45.042;38.994;2023-04-16T07:28:38;10.48;;;7.20;;
50683;SDS011;36654;45.042;38.994;2023-04-16T07:31:04;13.82;;;7.03;;
50683;SDS011;36654;45.042;38.994;2023-04-16T07:33:29;9.27;;;6.38;;
50683;SDS011;36654;45.042;38.994;2023-04-16T07:35:55;9.77;;;6.55;;
50683;SDS011;36654;45.042;38.994;2023-04-16T07:38:21;12.52;;;6.95;;
50683;SDS011;36654;45.042;38.994;2023-04-16T07:40:46;11.80;;;6.40;;
50683;SDS011;36654;45.042;38.994;2023-04-16T07:43:12;9.77;;;6.38;;
50683;SDS011;36654;45.042;38.994;2023-04-16T07:45:39;10.93;;;5.90;;
50683;SDS011;36654;45.042;38.994;2023-04-16T07:48:05;10.70;;;5.80;;
50683;SDS011;36654;45.042;38.994;2023-04-16T07:50:30;11.13;;;6.07;;
50683;SDS011;36654;45.042;38.994;2023-04-16T07:52:56;8.23;;;6.05;;
50683;SDS011;36654;45.042;38.994;2023-04-16T07:55:22;9.70;;;5.93;;
50683;SDS011;36654;45.042;38.994;2023-04-16T07:57:47;9.82;;;5.85;;
50683;SDS011;36654;45.042;38.994;2023-04-16T08:00:13;8.27;;;5.90;;
50683;SDS011;36654;45.042;38.994;2023-04-16T08:02:39;13.15;;;6.72;;
50683;SDS011;36654;45.042;38.994;2023-04-16T08:05:05;11.40;;;6.68;;
50683;SDS011;36654;45.042;38.994;2023-04-16T08:07:31;12.85;;;5.93;;
50683;SDS011;36654;45.042;38.994;2023-04-16T08:09:57;10.48;;;6.38;;
50683;SDS011;36654;45.042;38.994;2023-04-16T08:12:22;9.77;;;6.10;;
50683;SDS011;36654;45.042;38.994;2023-04-16T08:14:48;9.05;;;6.55;;
50683;SDS011;36654;45.042;38.994;2023-04-16T08:17:14;12.75;;;7.13;;
50683;SDS011;36654;45.042;38.994;2023-04-16T08:19:40;10.68;;;6.65;;
50683;SDS011;36654;45.042;38.994;2023-04-16T08:22:07;13.18;;;7.10;;
50683;SDS011;36654;45.042;38.994;2023-04-16T08:24:33;11.65;;;5.90;;
50683;SDS011;36654;45.042;38.994;2023-04-16T08:26:58;13.00;;;5.78;;
50683;SDS011;36654;45.042;38.994;2023-04-16T08:29:24;10.88;;;6.20;;
50683;SDS011;36654;45.042;38.994;2023-04-16T08:31:50;10.52;;;6.55;;
50683;SDS011;36654;45.042;38.994;2023-04-16T08:34:17;11.18;;;7.25;;
50683;SDS011;36654;45.042;38.994;2023-04-16T08:36:43;12.25;;;6.00;;
50683;SDS011;36654;45.042;38.994;2023-04-16T08:39:10;12.93;;;6.75;;
50683;SDS011;36654;45.042;38.994;2023-04-16T08:41:35;12.82;;;6.28;;
50683;SDS011;36654;45.042;38.994;2023-04-16T08:44:08;9.18;;;6.15;;
50683;SDS011;36654;45.042;38.994;2023-04-16T08:46:38;9.45;;;5.25;;
50683;SDS011;36654;45.042;38.994;2023-04-16T08:49:06;9.77;;;6.20;;
50683;SDS011;36654;45.042;38.994;2023-04-16T08:51:35;10.07;;;6.03;;
50683;SDS011;36654;45.042;38.994;2023-04-16T08:54:04;9.90;;;5.60;;
50683;SDS011;36654;45.042;38.994;2023-04-16T08:56:34;14.60;;;5.53;;
50683;SDS011;36654;45.042;38.994;2023-04-16T08:59:01;10.60;;;5.10;;
50683;SDS011;36654;45.042;38.994;2023-04-16T09:01:33;6.50;;;4.93;;
50683;SDS011;36654;45.042;38.994;2023-04-16T09:04:00;8.20;;;5.00;;
50683;SDS011;36654;45.042;38.994;2023-04-16T09:06:27;8.63;;;5.55;;
50683;SDS011;36654;45.042;38.994;2023-04-16T09:08:53;8.52;;;4.70;;
50683;SDS011;36654;45.042;38.994;2023-04-16T09:11:20;12.65;;;5.05;;
50683;SDS011;36654;45.042;38.994;2023-04-16T09:13:46;5.15;;;4.20;;
50683;SDS011;36654;45.042;38.994;2023-04-16T09:16:12;7.28;;;4.22;;
50683;SDS011;36654;45.042;38.994;2023-04-16T09:18:39;8.07;;;5.32;;
50683;SDS011;36654;45.042;38.994;2023-04-16T09:21:06;14.75;;;4.15;;
50683;SDS011;36654;45.042;38.994;2023-04-16T09:25:59;7.70;;;4.82;;
50683;SDS011;36654;45.042;38.994;2023-04-16T09:28:38;5.85;;;4.20;;
50683;SDS011;36654;45.042;38.994;2023-04-16T09:33:34;4.97;;;3.85;;
50683;SDS011;36654;45.042;38.994;2023-04-16T09:36:00;5.30;;;4.00;;
50683;SDS011;36654;45.042;38.994;2023-04-16T09:38:26;5.00;;;4.35;;
50683;SDS011;36654;45.042;38.994;2023-04-16T09:41:13;5.95;;;4.53;;
50683;SDS011;36654;45.042;38.994;2023-04-16T09:43:40;4.93;;;3.78;;
50683;SDS011;36654;45.042;38.994;2023-04-16T09:46:13;5.80;;;4.10;;
50683;SDS011;36654;45.042;38.994;2023-04-16T09:48:39;7.13;;;5.15;;
50683;SDS011;36654;45.042;38.994;2023-04-16T09:51:05;7.13;;;4.07;;
50683;SDS011;36654;45.042;38.994;2023-04-16T09:53:31;7.22;;;4.38;;
50683;SDS011;36654;45.042;38.994;2023-04-16T09:58:29;8.95;;;4.28;;
50683;SDS011;36654;45.042;38.994;2023-04-16T10:01:01;8.85;;;5.43;;
50683;SDS011;36654;45.042;38.994;2023-04-16T10:03:31;5.30;;;4.07;;
50683;SDS011;36654;45.042;38.994;2023-04-16T10:06:02;7.95;;;3.63;;
50683;SDS011;36654;45.042;38.994;2023-04-16T10:08:32;6.72;;;4.13;;
50683;SDS011;36654;45.042;38.994;2023-04-16T10:10:58;7.50;;;4.15;;
50683;SDS011;36654;45.042;38.994;2023-04-16T10:13:23;5.07;;;3.88;;
50683;SDS011;36654;45.042;38.994;2023-04-16T10:15:54;9.35;;;4.05;;
50683;SDS011;36654;45.042;38.994;2023-04-16T10:18:20;8.70;;;4.20;;
50683;SDS011;36654;45.042;38.994;2023-04-16T10:20:46;9.43;;;4.13;;
50683;SDS011;36654;45.042;38.994;2023-04-16T10:23:13;7.15;;;4.60;;
50683;SDS011;36654;45.042;38.994;2023-04-16T10:25:39;6.97;;;4.28;;
50683;SDS011;36654;45.042;38.994;2023-04-16T10:28:08;7.47;;;4.40;;
50683;SDS011;36654;45.042;38.994;2023-04-16T10:30:34;8.60;;;4.22;;
50683;SDS011;36654;45.042;38.994;2023-04-16T10:33:02;6.18;;;3.85;;
50683;SDS011;36654;45.042;38.994;2023-04-16T10:35:31;11.85;;;3.70;;
50683;SDS011;36654;45.042;38.994;2023-04-16T10:40:42;7.47;;;4.20;;
50683;SDS011;36654;45.042;38.994;2023-04-16T10:43:15;10.93;;;4.53;;
50683;SDS011;36654;45.042;38.994;2023-04-16T10:45:42;7.35;;;4.03;;
50683;SDS011;36654;45.042;38.994;2023-04-16T10:48:07;6.80;;;3.92;;
50683;SDS011;36654;45.042;38.994;2023-04-16T10:50:37;9.00;;;4.88;;
50683;SDS011;36654;45.042;38.994;2023-04-16T10:53:19;4.65;;;4.10;;
50683;SDS011;36654;45.042;38.994;2023-04-16T10:56:08;9.35;;;4.53;;
50683;SDS011;36654;45.042;38.994;2023-04-16T10:58:38;12.35;;;4.25;;
50683;SDS011;36654;45.042;38.994;2023-04-16T11:03:39;16.00;;;4.47;;
50683;SDS011;36654;45.042;38.994;2023-04-16T11:06:09;5.28;;;3.70;;
50683;SDS011;36654;45.042;38.994;2023-04-16T11:08:36;12.32;;;4.40;;
50683;SDS011;36654;45.042;38.994;2023-04-16T11:11:05;9.52;;;4.60;;
50683;SDS011;36654;45.042;38.994;2023-04-16T11:13:31;8.20;;;4.20;;
50683;SDS011;36654;45.042;38.994;2023-04-16T11:15:57;7.10;;;4.13;;
50683;SDS011;36654;45.042;38.994;2023-04-16T11:18:23;11.07;;;4.53;;
50683;SDS011;36654;45.042;38.994;2023-04-16T11:20:50;5.28;;;3.92;;
50683;SDS011;36654;45.042;38.994;2023-04-16T11:23:15;5.70;;;3.85;;
50683;SDS011;36654;45.042;38.994;2023-04-16T11:25:41;5.38;;;4.15;;
50683;SDS011;36654;45.042;38.994;2023-04-16T11:28:07;14.38;;;5.88;;
50683;SDS011;36654;45.042;38.994;2023-04-16T11:30:33;10.90;;;4.85;;
50683;SDS011;36654;45.042;38.994;2023-04-16T11:33:09;9.40;;;4.22;;
50683;SDS011;36654;45.042;38.994;2023-04-16T11:35:36;12.07;;;4.38;;
50683;SDS011;36654;45.042;38.994;2023-04-16T11:38:03;9.15;;;4.57;;
50683;SDS011;36654;45.042;38.994;2023-04-16T11:40:32;10.63;;;4.50;;
50683;SDS011;36654;45.042;38.994;2023-04-16T11:43:01;7.00;;;3.80;;
50683;SDS011;36654;45.042;38.994;2023-04-16T11:45:28;7.18;;;3.97;;
50683;SDS011;36654;45.042;38.994;2023-04-16T11:47:53;9.48;;;4.47;;
50683;SDS011;36654;45.042;38.994;2023-04-16T11:50:22;6.70;;;3.95;;
50683;SDS011;36654;45.042;38.994;2023-04-16T11:52:52;10.15;;;4.18;;
50683;SDS011;36654;45.042;38.994;2023-04-16T11:55:27;7.32;;;3.97;;
50683;SDS011;36654;45.042;38.994;2023-04-16T11:57:52;6.47;;;4.70;;
50683;SDS011;36654;45.042;38.994;2023-04-16T12:00:20;8.20;;;4.82;;
50683;SDS011;36654;45.042;38.994;2023-04-16T12:02:49;17.58;;;4.78;;
50683;SDS011;36654;45.042;38.994;2023-04-16T12:05:25;13.23;;;5.18;;
50683;SDS011;36654;45.042;38.994;2023-04-16T12:07:52;9.13;;;4.35;;
50683;SDS011;36654;45.042;38.994;2023-04-16T12:10:17;5.55;;;4.30;;
50683;SDS011;36654;45.042;38.994;2023-04-16T12:12:43;9.73;;;4.43;;
50683;SDS011;36654;45.042;38.994;2023-04-16T12:15:09;4.30;;;3.90;;
50683;SDS011;36654;45.042;38.994;2023-04-16T12:17:35;7.30;;;3.97;;
50683;SDS011;36654;45.042;38.994;2023-04-16T12:20:11;7.00;;;4.13;;
50683;SDS011;36654;45.042;38.994;2023-04-16T12:22:45;4.53;;;3.95;;
50683;SDS011;36654;45.042;38.994;2023-04-16T12:25:16;8.80;;;4.53;;
50683;SDS011;36654;45.042;38.994;2023-04-16T12:27:49;8.35;;;4.40;;
50683;SDS011;36654;45.042;38.994;2023-04-16T12:30:17;9.13;;;5.00;;
50683;SDS011;36654;45.042;38.994;2023-04-16T12:32:45;11.40;;;4.78;;
50683;SDS011;36654;45.042;38.994;2023-04-16T12:35:12;10.88;;;3.97;;
50683;SDS011;36654;45.042;38.994;2023-04-16T12:37:38;7.80;;;4.88;;
50683;SDS011;36654;45.042;38.994;2023-04-16T12:40:05;14.82;;;4.55;;
50683;SDS011;36654;45.042;38.994;2023-04-16T12:42:31;8.52;;;4.55;;
50683;SDS011;36654;45.042;38.994;2023-04-16T12:45:01;6.88;;;4.45;;
50683;SDS011;36654;45.042;38.994;2023-04-16T12:47:28;7.00;;;4.65;;
50683;SDS011;36654;45.042;38.994;2023-04-16T12:49:55;8.02;;;3.95;;
50683;SDS011;36654;45.042;38.994;2023-04-16T12:52:21;9.30;;;4.80;;
50683;SDS011;36654;45.042;38.994;2023-04-16T12:54:48;8.55;;;4.65;;
50683;SDS011;36654;45.042;38.994;2023-04-16T12:57:13;10.35;;;5.10;;
50683;SDS011;36654;45.042;38.994;2023-04-16T12:59:40;8.48;;;4.20;;
50683;SDS011;36654;45.042;38.994;2023-04-16T13:02:06;6.35;;;4.65;;
50683;SDS011;36654;45.042;38.994;2023-04-16T13:04:32;4.97;;;3.92;;
50683;SDS011;36654;45.042;38.994;2023-04-16T13:06:58;8.25;;;4.05;;
50683;SDS011;36654;45.042;38.994;2023-04-16T13:09:24;6.20;;;3.88;;
50683;SDS011;36654;45.042;38.994;2023-04-16T13:11:51;7.57;;;4.15;;
50683;SDS011;36654;45.042;38.994;2023-04-16T13:14:16;6.10;;;4.10;;
50683;SDS011;36654;45.042;38.994;2023-04-16T13:16:42;8.02;;;3.35;;
50683;SDS011;36654;45.042;38.994;2023-04-16T13:19:07;8.23;;;4.35;;
50683;SDS011;36654;45.042;38.994;2023-04-16T13:21:33;6.75;;;4.00;;
50683;SDS011;36654;45.042;38.994;2023-04-16T13:23:59;9.82;;;4.43;;
50683;SDS011;36654;45.042;38.994;2023-04-16T13:26:25;10.93;;;3.92;;
50683;SDS011;36654;45.042;38.994;2023-04-16T13:28:50;10.40;;;4.18;;
50683;SDS011;36654;45.042;38.994;2023-04-16T13:31:16;5.60;;;3.40;;
50683;SDS011;36654;45.042;38.994;2023-04-16T13:33:44;5.18;;;3.92;;
50683;SDS011;36654;45.042;38.994;2023-04-16T13:36:11;10.68;;;3.80;;
50683;SDS011;36654;45.042;38.994;2023-04-16T13:38:36;8.15;;;4.30;;
50683;SDS011;36654;45.042;38.994;2023-04-16T13:41:03;11.63;;;4.22;;
50683;SDS011;36654;45.042;38.994;2023-04-16T13:43:30;5.70;;;3.83;;
50683;SDS011;36654;45.042;38.994;2023-04-16T13:45:56;9.98;;;4.22;;
50683;SDS011;36654;45.042;38.994;2023-04-16T13:48:22;7.68;;;4.68;;
50683;SDS011;36654;45.042;38.994;2023-04-16T13:50:48;5.68;;;4.10;;
50683;SDS011;36654;45.042;38.994;2023-04-16T13:53:14;7.38;;;4.60;;
50683;SDS011;36654;45.042;38.994;2023-04-16T13:55:39;4.80;;;3.60;;
50683;SDS011;36654;45.042;38.994;2023-04-16T13:58:08;6.60;;;4.82;;
50683;SDS011;36654;45.042;38.994;2023-04-16T14:00:35;7.07;;;4.40;;
50683;SDS011;36654;45.042;38.994;2023-04-16T14:03:01;7.95;;;4.45;;
50683;SDS011;36654;45.042;38.994;2023-04-16T14:05:30;7.30;;;4.60;;
50683;SDS011;36654;45.042;38.994;2023-04-16T14:07:59;7.32;;;3.38;;
50683;SDS011;36654;45.042;38.994;2023-04-16T14:10:25;6.82;;;4.10;;
50683;SDS011;36654;45.042;38.994;2023-04-16T14:12:50;9.40;;;4.53;;
50683;SDS011;36654;45.042;38.994;2023-04-16T14:15:16;8.23;;;4.15;;
50683;SDS011;36654;45.042;38.994;2023-04-16T14:17:43;7.30;;;3.90;;
50683;SDS011;36654;45.042;38.994;2023-04-16T14:20:12;9.85;;;4.10;;
50683;SDS011;36654;45.042;38.994;2023-04-16T14:22:38;6.95;;;3.70;;
50683;SDS011;36654;45.042;38.994;2023-04-16T14:25:06;5.03;;;3.50;;
50683;SDS011;36654;45.042;38.994;2023-04-16T14:27:34;9.52;;;4.07;;
50683;SDS011;36654;45.042;38.994;2023-04-16T14:30:02;6.30;;;4.15;;
50683;SDS011;36654;45.042;38.994;2023-04-16T14:34:54;4.53;;;3.65;;
50683;SDS011;36654;45.042;38.994;2023-04-16T14:37:23;5.93;;;4.05;;
50683;SDS011;36654;45.042;38.994;2023-04-16T14:39:50;6.28;;;3.58;;